createdAt,value
2022-08-28T00:00:28.909Z,61.13
2022-08-28T00:02:56.773Z,61.23
2022-08-28T00:05:25.944Z,61.41
2022-08-28T00:07:52.549Z,61.46
2022-08-28T00:10:22.414Z,61.57
2022-08-28T00:12:50.269Z,61.78
2022-08-28T00:15:24.295Z,61.86
2022-08-28T00:17:51.056Z,62.05
2022-08-28T00:20:19.818Z,62.14
2022-08-28T00:22:46.945Z,62.12
2022-08-28T00:25:24.482Z,62.17
2022-08-28T00:27:53.049Z,61.90
2022-08-28T00:30:32.943Z,62.09
2022-08-28T00:33:03.074Z,62.00
2022-08-28T00:35:29.797Z,62.06
2022-08-28T00:37:57.981Z,62.13
2022-08-28T00:40:28.673Z,62.01
2022-08-28T00:43:00.333Z,62.18
2022-08-28T00:45:27.497Z,62.45
2022-08-28T00:47:53.881Z,62.63
2022-08-28T00:50:27.369Z,63.02
2022-08-28T00:52:59.957Z,63.16
2022-08-28T00:55:28.350Z,63.32
2022-08-28T00:58:01.344Z,63.25
2022-08-28T01:00:34.914Z,63.59
2022-08-28T01:03:02.785Z,63.49
2022-08-28T01:05:29.892Z,63.49
2022-08-28T01:07:58.715Z,63.44
2022-08-28T01:10:28.087Z,63.32
2022-08-28T01:12:56.204Z,63.34
2022-08-28T01:15:28.300Z,63.37
2022-08-28T01:18:04.670Z,63.48
2022-08-28T01:20:36.504Z,63.90
2022-08-28T01:23:13.315Z,64.28
2022-08-28T01:25:40.822Z,64.23
2022-08-28T01:28:12.604Z,64.42
2022-08-28T01:30:42.467Z,64.79
2022-08-28T01:33:08.924Z,64.97
2022-08-28T01:35:42.856Z,65.23
2022-08-28T01:38:09.464Z,65.14
2022-08-28T01:40:40.009Z,65.35
2022-08-28T01:43:08.423Z,65.64
2022-08-28T01:45:37.589Z,66.10
2022-08-28T01:48:07.382Z,66.47
2022-08-28T01:50:37.365Z,67.01
2022-08-28T01:53:05.377Z,67.44
2022-08-28T01:55:36.053Z,67.65
2022-08-28T01:58:05.787Z,67.68
2022-08-28T02:00:32.211Z,67.88
2022-08-28T02:03:00.786Z,68.27
2022-08-28T02:05:30.387Z,68.57
2022-08-28T02:07:58.079Z,68.52
2022-08-28T02:10:27.138Z,68.62
2022-08-28T02:12:55.854Z,68.83
2022-08-28T02:15:27.916Z,68.89
2022-08-28T02:17:54.528Z,68.81
2022-08-28T02:20:21.154Z,68.82
2022-08-28T02:22:48.141Z,68.80
2022-08-28T02:25:16.692Z,68.73
2022-08-28T02:27:44.168Z,68.82
2022-08-28T02:30:12.987Z,68.98
2022-08-28T02:32:39.951Z,69.25
2022-08-28T02:35:10.092Z,69.33
2022-08-28T02:37:39.621Z,69.34
2022-08-28T02:40:06.899Z,69.16
2022-08-28T02:42:33.337Z,69.17
2022-08-28T02:44:59.898Z,69.23
2022-08-28T02:47:26.479Z,69.15
2022-08-28T02:49:53.231Z,69.21
2022-08-28T02:52:19.632Z,69.31
2022-08-28T02:54:47.408Z,69.67
2022-08-28T02:57:14.208Z,69.38
2022-08-28T02:59:40.795Z,69.28
2022-08-28T03:02:07.525Z,69.22
2022-08-28T03:04:35.756Z,69.19
2022-08-28T03:07:03.353Z,69.16
2022-08-28T03:09:30.443Z,69.04
2022-08-28T03:11:56.855Z,68.93
2022-08-28T03:14:26.758Z,69.12
2022-08-28T03:16:53.220Z,69.13
2022-08-28T03:19:19.875Z,69.24
2022-08-28T03:21:46.415Z,69.49
2022-08-28T03:24:15.225Z,69.54
2022-08-28T03:26:42.178Z,69.66
2022-08-28T03:29:08.657Z,69.76
2022-08-28T03:31:36.157Z,69.88
2022-08-28T03:34:02.844Z,70.06
2022-08-28T03:36:29.798Z,69.96
2022-08-28T03:38:58.951Z,70.05
2022-08-28T03:41:29.072Z,70.07
2022-08-28T03:43:57.621Z,70.11
2022-08-28T03:46:24.925Z,70.19
2022-08-28T03:48:53.616Z,70.60
2022-08-28T03:51:29.174Z,70.61
2022-08-28T03:53:57.505Z,70.41
2022-08-28T03:56:26.307Z,70.21
2022-08-28T03:58:55.849Z,70.12
2022-08-28T04:01:22.315Z,70.23
2022-08-28T04:03:49.186Z,70.48
2022-08-28T04:06:19.752Z,71.03
2022-08-28T04:08:47.492Z,70.89
2022-08-28T04:11:13.953Z,71.07
2022-08-28T04:13:41.655Z,70.91
2022-08-28T04:16:11.665Z,71.12
2022-08-28T04:18:40.713Z,71.29
2022-08-28T04:21:13.545Z,71.43
2022-08-28T04:23:43.206Z,71.43
2022-08-28T04:26:15.663Z,71.58
2022-08-28T04:28:44.872Z,71.57
2022-08-28T04:31:11.757Z,71.71
2022-08-28T04:33:39.077Z,71.87
2022-08-28T04:36:09.228Z,71.91
2022-08-28T04:38:40.335Z,71.89
2022-08-28T04:41:12.621Z,71.89
2022-08-28T04:43:38.998Z,71.79
2022-08-28T04:46:07.635Z,71.95
2022-08-28T04:48:35.205Z,71.94
2022-08-28T04:51:06.050Z,71.90
2022-08-28T04:53:33.001Z,71.95
2022-08-28T04:56:00.606Z,72.10
2022-08-28T04:58:27.618Z,72.13
2022-08-28T05:00:55.062Z,72.03
2022-08-28T05:03:22.714Z,72.07
2022-08-28T05:05:55.776Z,71.90
2022-08-28T05:08:26.889Z,71.89
2022-08-28T05:10:53.557Z,71.82
2022-08-28T05:13:20.691Z,71.95
2022-08-28T05:15:51.258Z,71.81
2022-08-28T05:18:21.005Z,72.31
2022-08-28T05:20:48.427Z,71.98
2022-08-28T05:23:15.934Z,71.95
2022-08-28T05:25:47.657Z,71.88
2022-08-28T05:28:16.809Z,71.82
2022-08-28T05:30:44.062Z,71.89
2022-08-28T05:33:13.186Z,71.95
2022-08-28T05:35:42.826Z,71.78
2022-08-28T05:38:10.894Z,71.53
2022-08-28T05:40:46.735Z,71.58
2022-08-28T05:43:16.402Z,71.14
2022-08-28T05:45:43.135Z,71.22
2022-08-28T05:48:10.447Z,70.95
2022-08-28T05:50:39.181Z,70.64
2022-08-28T05:53:09.437Z,70.48
2022-08-28T05:55:39.984Z,70.75
2022-08-28T05:58:26.393Z,70.76
2022-08-28T06:00:52.806Z,69.58
2022-08-28T06:03:19.217Z,67.68
2022-08-28T06:05:45.742Z,65.50
2022-08-28T06:08:12.439Z,63.17
2022-08-28T06:10:47.811Z,60.89
2022-08-28T06:13:17.617Z,60.05
2022-08-28T06:15:48.881Z,60.02
2022-08-28T06:18:16.710Z,60.25
2022-08-28T06:20:45.670Z,59.91
2022-08-28T06:23:16.030Z,59.11
2022-08-28T06:25:51.494Z,57.54
2022-08-28T06:28:22.249Z,57.23
2022-08-28T06:31:17.894Z,55.94
2022-08-28T06:33:37.705Z,55.99
2022-08-28T06:36:05.379Z,55.65
2022-08-28T06:38:32.522Z,54.16
2022-08-28T06:40:59.906Z,52.27
2022-08-28T06:43:28.777Z,50.28
2022-08-28T06:45:57.172Z,48.66
2022-08-28T06:48:27.330Z,47.76
2022-08-28T06:50:55.795Z,46.60
2022-08-28T06:53:24.914Z,46.95
2022-08-28T06:56:02.965Z,46.42
2022-08-28T06:58:29.624Z,45.40
2022-08-28T07:01:07.973Z,45.63
2022-08-28T07:03:35.064Z,45.47
2022-08-28T07:06:04.229Z,45.38
2022-08-28T07:08:32.172Z,45.54
2022-08-28T07:10:59.806Z,44.71
2022-08-28T07:13:29.116Z,43.65
2022-08-28T07:15:57.761Z,42.68
2022-08-28T07:18:24.169Z,41.18
2022-08-28T07:20:58.877Z,40.23
2022-08-28T07:23:25.670Z,39.86
2022-08-28T07:25:52.788Z,39.63
2022-08-28T07:28:19.557Z,39.04
2022-08-28T07:30:55.077Z,38.37
2022-08-28T07:33:21.500Z,36.97
2022-08-28T07:35:47.989Z,35.94
2022-08-28T07:38:14.449Z,35.66
2022-08-28T07:40:41.243Z,34.99
2022-08-28T07:43:25.937Z,34.44
2022-08-28T07:45:59.970Z,33.77
2022-08-28T07:48:26.740Z,34.10
2022-08-28T07:50:53.495Z,34.84
2022-08-28T07:53:20.587Z,36.42
2022-08-28T07:55:50.022Z,37.02
2022-08-28T07:58:16.801Z,36.59
2022-08-28T08:00:43.569Z,36.37
2022-08-28T08:03:09.991Z,36.48
2022-08-28T08:05:36.896Z,37.14
2022-08-28T08:08:03.742Z,37.57
2022-08-28T08:10:34.167Z,37.69
2022-08-28T08:13:00.870Z,37.36
2022-08-28T08:15:31.122Z,36.38
2022-08-28T08:17:57.771Z,35.72
2022-08-28T08:20:24.341Z,35.11
2022-08-28T08:22:50.803Z,35.38
2022-08-28T08:25:17.419Z,35.84
2022-08-28T08:27:43.822Z,36.26
2022-08-28T08:30:11.653Z,35.89
2022-08-28T08:32:39.975Z,34.44
2022-08-28T08:35:06.842Z,33.93
2022-08-28T08:37:33.229Z,32.65
2022-08-28T08:39:59.757Z,32.80
2022-08-28T08:42:30.031Z,31.66
2022-08-28T08:44:59.834Z,30.87
2022-08-28T08:47:49.119Z,30.74
2022-08-28T08:50:31.113Z,30.20
2022-08-28T08:53:23.513Z,30.17
2022-08-28T08:55:53.366Z,30.00
2022-08-28T08:58:23.853Z,30.08
2022-08-28T09:01:14.062Z,30.06
2022-08-28T09:03:53.788Z,30.01
2022-08-28T09:06:41.568Z,29.51
2022-08-28T09:09:19.962Z,28.73
2022-08-28T09:11:56.516Z,28.60
2022-08-28T09:14:41.940Z,29.13
2022-08-28T09:17:10.720Z,28.64
2022-08-28T09:19:37.671Z,28.60
2022-08-28T09:22:04.190Z,29.37
2022-08-28T09:24:33.269Z,29.15
2022-08-28T09:27:03.272Z,29.20
2022-08-28T09:29:36.217Z,29.54
2022-08-28T09:32:23.659Z,29.47
2022-08-28T09:35:32.361Z,29.13
2022-08-28T09:38:20.630Z,28.86
2022-08-28T09:41:08.365Z,29.17
2022-08-28T09:43:36.609Z,29.61
2022-08-28T09:46:09.012Z,29.34
2022-08-28T09:48:39.716Z,29.58
2022-08-28T09:51:11.297Z,30.25
2022-08-28T09:53:54.440Z,30.51
2022-08-28T09:56:29.085Z,30.21
2022-08-28T09:59:00.007Z,30.07
2022-08-28T10:01:44.549Z,30.41
2022-08-28T10:04:17.954Z,30.54
2022-08-28T10:06:52.053Z,30.52
2022-08-28T10:09:40.523Z,30.32
2022-08-28T10:12:29.825Z,30.48
2022-08-28T10:15:17.185Z,30.95
2022-08-28T10:18:04.606Z,30.45
2022-08-28T10:20:37.016Z,30.00
2022-08-28T10:23:18.814Z,30.35
2022-08-28T10:26:05.265Z,29.81
2022-08-28T10:28:45.942Z,29.96
2022-08-28T10:31:26.119Z,28.96
2022-08-28T10:34:32.135Z,29.02
2022-08-28T10:37:13.847Z,28.50
2022-08-28T10:39:57.659Z,28.27
2022-08-28T10:42:36.259Z,27.42
2022-08-28T10:45:15.400Z,27.77
2022-08-28T10:47:48.099Z,28.28
2022-08-28T10:50:25.267Z,28.12
2022-08-28T10:53:03.016Z,27.98
2022-08-28T10:55:57.207Z,30.44
2022-08-28T10:58:27.443Z,30.44
2022-08-28T11:01:04.594Z,31.59
2022-08-28T11:03:44.805Z,30.72
2022-08-28T11:06:41.605Z,30.31
2022-08-28T11:09:25.891Z,30.16
2022-08-28T11:12:04.392Z,30.19
2022-08-28T11:14:32.478Z,30.03
2022-08-28T11:17:03.008Z,30.20
2022-08-28T11:19:51.668Z,29.53
2022-08-28T11:22:44.864Z,29.77
2022-08-28T11:25:33.051Z,29.95
2022-08-28T11:28:23.563Z,30.41
2022-08-28T11:31:19.191Z,30.70
2022-08-28T11:33:56.257Z,29.74
2022-08-28T11:36:22.571Z,29.81
2022-08-28T11:38:51.886Z,30.21
2022-08-28T11:41:39.381Z,30.34
2022-08-28T11:44:14.862Z,29.34
2022-08-28T11:46:49.787Z,29.11
2022-08-28T11:49:34.521Z,29.65
2022-08-28T11:52:30.446Z,29.14
2022-08-28T11:55:03.621Z,29.27
2022-08-28T12:00:51.167Z,29.17
2022-08-28T12:03:38.218Z,29.47
2022-08-28T12:06:06.749Z,29.32
2022-08-28T12:08:45.042Z,28.87
2022-08-28T12:11:40.339Z,29.09
2022-08-28T12:14:08.150Z,28.79
2022-08-28T12:17:08.673Z,27.94
2022-08-28T12:19:49.975Z,28.42
2022-08-28T12:22:25.926Z,27.63
2022-08-28T12:24:57.398Z,28.02
2022-08-28T12:27:24.948Z,28.41
2022-08-28T12:29:56.733Z,27.79
2022-08-28T12:32:44.422Z,27.12
2022-08-28T12:35:21.222Z,26.81
2022-08-28T12:37:54.101Z,26.62
2022-08-28T12:40:20.841Z,26.14
2022-08-28T12:42:55.218Z,25.70
2022-08-28T12:45:39.405Z,25.77
2022-08-28T12:48:17.413Z,26.63
2022-08-28T12:50:44.593Z,26.41
2022-08-28T12:53:17.570Z,26.96
2022-08-28T12:55:46.545Z,26.76
2022-08-28T12:58:34.456Z,26.14
2022-08-28T13:01:13.145Z,26.52
2022-08-28T13:04:25.678Z,25.96
2022-08-28T13:06:59.519Z,25.70
2022-08-28T13:09:28.078Z,25.95
2022-08-28T13:11:54.949Z,26.40
2022-08-28T13:14:37.014Z,26.55
2022-08-28T13:17:04.307Z,26.32
2022-08-28T13:19:33.182Z,26.73
2022-08-28T13:22:03.103Z,26.56
2022-08-28T13:24:35.394Z,26.15
2022-08-28T13:27:13.958Z,26.47
2022-08-28T13:29:57.463Z,26.09
2022-08-28T13:32:27.450Z,26.46
2022-08-28T13:35:02.802Z,26.83
2022-08-28T13:37:49.330Z,27.27
2022-08-28T13:40:53.251Z,27.77
2022-08-28T13:43:08.099Z,27.61
2022-08-28T13:45:43.474Z,27.28
2022-08-28T13:48:15.772Z,27.78
2022-08-28T13:50:46.902Z,28.24
2022-08-28T13:53:15.819Z,28.48
2022-08-28T13:55:42.365Z,28.25
2022-08-28T13:58:08.837Z,28.61
2022-08-28T14:00:40.188Z,28.43
2022-08-28T14:03:25.268Z,28.56
2022-08-28T14:05:51.730Z,29.39
2022-08-28T14:08:18.129Z,29.64
2022-08-28T14:10:44.532Z,29.33
2022-08-28T14:13:11.028Z,29.98
2022-08-28T14:15:38.444Z,30.00
2022-08-28T14:18:08.172Z,30.36
2022-08-28T14:20:34.646Z,29.73
2022-08-28T14:23:01.031Z,29.97
2022-08-28T14:25:27.443Z,30.33
2022-08-28T14:27:55.708Z,30.49
2022-08-28T14:30:22.729Z,30.13
2022-08-28T14:32:49.164Z,29.96
2022-08-28T14:35:15.815Z,29.99
2022-08-28T14:37:42.478Z,29.61
2022-08-28T14:40:09.912Z,29.61
2022-08-28T14:42:36.332Z,30.26
2022-08-28T14:45:02.950Z,30.40
2022-08-28T14:47:29.464Z,30.30
2022-08-28T14:49:55.953Z,30.58
2022-08-28T14:52:22.825Z,30.78
2022-08-28T14:54:49.174Z,31.23
2022-08-28T14:57:15.610Z,31.47
2022-08-28T14:59:42.187Z,31.64
2022-08-28T15:02:08.595Z,32.02
2022-08-28T15:04:37.618Z,32.17
2022-08-28T15:07:07.656Z,32.60
2022-08-28T15:09:40.247Z,32.50
2022-08-28T15:12:07.272Z,32.40
2022-08-28T15:14:34.817Z,32.30
2022-08-28T15:17:01.733Z,31.93
2022-08-28T15:19:30.005Z,32.94
2022-08-28T15:21:57.783Z,33.28
2022-08-28T15:24:28.510Z,33.67
2022-08-28T15:26:55.325Z,33.43
2022-08-28T15:29:21.706Z,33.51
2022-08-28T15:31:49.524Z,33.95
2022-08-28T15:34:19.676Z,33.74
2022-08-28T15:36:55.085Z,33.85
2022-08-28T15:39:43.466Z,33.29
2022-08-28T15:42:14.022Z,32.86
2022-08-28T15:44:40.665Z,32.93
2022-08-28T15:47:07.910Z,32.83
2022-08-28T15:49:43.686Z,33.12
2022-08-28T15:52:15.465Z,33.32
2022-08-28T15:54:42.633Z,33.41
2022-08-28T15:57:09.169Z,33.68
2022-08-28T15:59:38.037Z,34.18
2022-08-28T16:02:17.531Z,34.48
2022-08-28T16:04:43.992Z,34.58
2022-08-28T16:07:14.930Z,34.67
2022-08-28T16:09:41.320Z,35.01
2022-08-28T16:12:07.813Z,34.94
2022-08-28T16:14:34.530Z,34.58
2022-08-28T16:17:06.040Z,34.23
2022-08-28T16:19:39.036Z,34.22
2022-08-28T16:22:05.619Z,34.47
2022-08-28T16:24:32.030Z,34.24
2022-08-28T16:26:58.406Z,34.60
2022-08-28T16:29:27.938Z,34.90
2022-08-28T16:31:56.529Z,34.73
2022-08-28T16:34:23.023Z,34.85
2022-08-28T16:36:50.055Z,35.17
2022-08-28T16:39:16.664Z,35.01
2022-08-28T16:41:49.520Z,35.18
2022-08-28T16:44:25.486Z,35.43
2022-08-28T16:46:53.498Z,34.80
2022-08-28T16:49:20.022Z,35.13
2022-08-28T16:51:47.129Z,35.59
2022-08-28T16:54:13.842Z,35.67
2022-08-28T16:56:40.315Z,35.99
2022-08-28T16:59:10.206Z,36.30
2022-08-28T17:01:37.589Z,36.64
2022-08-28T17:04:10.314Z,37.29
2022-08-28T17:06:36.745Z,37.53
2022-08-28T17:09:03.696Z,37.74
2022-08-28T17:11:30.987Z,37.96
2022-08-28T17:13:58.513Z,37.83
2022-08-28T17:16:29.540Z,38.33
2022-08-28T17:18:56.001Z,38.23
2022-08-28T17:21:41.312Z,38.57
2022-08-28T17:24:09.585Z,38.89
2022-08-28T17:26:36.274Z,39.06
2022-08-28T17:29:03.042Z,39.59
2022-08-28T17:31:29.737Z,40.16
2022-08-28T17:33:56.220Z,40.28
2022-08-28T17:36:33.330Z,40.24
2022-08-28T17:39:02.987Z,40.63
2022-08-28T17:41:29.459Z,40.88
2022-08-28T17:43:56.056Z,41.35
2022-08-28T17:46:22.534Z,41.51
2022-08-28T17:48:55.682Z,41.51
2022-08-28T17:51:41.916Z,41.96
2022-08-28T17:54:10.215Z,41.92
2022-08-28T17:56:36.901Z,42.36
2022-08-28T17:59:04.217Z,43.06
2022-08-28T18:01:36.953Z,42.89
2022-08-28T18:04:06.091Z,43.21
2022-08-28T18:06:32.871Z,43.28
2022-08-28T18:08:59.324Z,43.31
2022-08-28T18:11:25.855Z,43.40
2022-08-28T18:13:52.287Z,43.79
2022-08-28T18:16:19.002Z,43.75
2022-08-28T18:18:45.458Z,44.09
2022-08-28T18:21:12.771Z,43.92
2022-08-28T18:23:39.840Z,44.43
2022-08-28T18:26:08.073Z,44.59
2022-08-28T18:28:34.915Z,45.04
2022-08-28T18:31:02.453Z,45.20
2022-08-28T18:33:29.586Z,45.33
2022-08-28T18:35:56.395Z,45.80
2022-08-28T18:38:28.591Z,45.89
2022-08-28T18:40:55.943Z,46.09
2022-08-28T18:43:23.594Z,46.00
2022-08-28T18:45:50.120Z,46.33
2022-08-28T18:48:16.589Z,46.44
2022-08-28T18:50:47.402Z,46.48
2022-08-28T18:53:15.142Z,46.67
2022-08-28T18:55:41.809Z,47.30
2022-08-28T18:58:08.378Z,47.59
2022-08-28T19:00:38.227Z,47.99
2022-08-28T19:03:05.500Z,48.27
2022-08-28T19:05:34.714Z,48.46
2022-08-28T19:08:04.623Z,48.70
2022-08-28T19:10:34.498Z,48.81
2022-08-28T19:13:01.833Z,48.83
2022-08-28T19:15:29.177Z,49.12
2022-08-28T19:17:55.758Z,49.60
2022-08-28T19:20:22.439Z,49.64
2022-08-28T19:22:48.979Z,49.89
2022-08-28T19:25:28.535Z,49.94
2022-08-28T19:27:59.638Z,50.46
2022-08-28T19:30:27.975Z,50.16
2022-08-28T19:32:57.684Z,50.39
2022-08-28T19:35:24.862Z,50.60
2022-08-28T19:37:52.505Z,50.51
2022-08-28T19:40:20.628Z,50.90
2022-08-28T19:42:47.702Z,50.87
2022-08-28T19:45:15.037Z,51.31
2022-08-28T19:47:41.841Z,51.38
2022-08-28T19:50:10.751Z,51.41
2022-08-28T19:52:37.881Z,51.59
2022-08-28T19:55:06.019Z,51.74
2022-08-28T19:57:34.199Z,51.88
2022-08-28T20:00:01.049Z,52.05
2022-08-28T20:02:40.849Z,52.20
2022-08-28T20:05:07.965Z,52.14
2022-08-28T20:07:34.424Z,52.28
2022-08-28T20:10:01.217Z,52.39
2022-08-28T20:12:27.725Z,52.11
2022-08-28T20:14:54.238Z,52.46
2022-08-28T20:17:20.673Z,52.55
2022-08-28T20:19:47.700Z,52.64
2022-08-28T20:22:14.450Z,52.68
2022-08-28T20:24:40.937Z,52.78
2022-08-28T20:27:07.362Z,52.94
2022-08-28T20:29:34.113Z,52.89
2022-08-28T20:32:01.201Z,53.05
2022-08-28T20:34:28.027Z,53.33
2022-08-28T20:36:54.756Z,53.44
2022-08-28T20:39:21.633Z,53.60
2022-08-28T20:41:49.158Z,54.09
2022-08-28T20:44:18.830Z,53.86
2022-08-28T20:46:51.277Z,54.22
2022-08-28T20:49:21.851Z,54.51
2022-08-28T20:51:56.844Z,54.27
2022-08-28T20:54:30.755Z,54.14
2022-08-28T20:56:59.411Z,53.96
2022-08-28T20:59:34.370Z,54.15
2022-08-28T21:02:07.415Z,54.06
2022-08-28T21:04:36.387Z,54.22
2022-08-28T21:07:04.189Z,54.08
2022-08-28T21:09:40.951Z,54.00
2022-08-28T21:12:17.549Z,54.01
2022-08-28T21:14:45.102Z,53.90
2022-08-28T21:17:29.579Z,53.74
2022-08-28T21:20:01.104Z,53.99
2022-08-28T21:22:29.637Z,54.01
2022-08-28T21:24:56.153Z,54.43
2022-08-28T21:27:22.581Z,54.25
2022-08-28T21:29:48.932Z,54.17
2022-08-28T21:32:16.148Z,54.12
2022-08-28T21:34:42.519Z,54.39
2022-08-28T21:37:09.056Z,54.61
2022-08-28T21:39:35.552Z,54.84
2022-08-28T21:42:04.584Z,55.32
2022-08-28T21:44:31.039Z,55.38
2022-08-28T21:46:58.800Z,55.69
2022-08-28T21:49:25.167Z,55.94
2022-08-28T21:51:51.631Z,55.95
2022-08-28T21:54:19.443Z,56.35
2022-08-28T21:56:46.217Z,56.32
2022-08-28T21:59:12.938Z,56.55
2022-08-28T22:01:39.367Z,56.70
2022-08-28T22:04:05.757Z,56.94
2022-08-28T22:06:32.239Z,57.09
2022-08-28T22:08:58.996Z,56.98
2022-08-28T22:11:26.786Z,57.11
2022-08-28T22:13:57.389Z,57.06
2022-08-28T22:16:27.010Z,57.00
2022-08-28T22:18:54.077Z,57.25
2022-08-28T22:21:43.365Z,57.05
2022-08-28T22:24:10.380Z,56.93
2022-08-28T22:26:37.658Z,56.95
2022-08-28T22:29:04.308Z,57.18
2022-08-28T22:31:30.772Z,57.39
2022-08-28T22:33:57.179Z,57.34
2022-08-28T22:36:23.930Z,57.49
2022-08-28T22:38:56.139Z,57.60
2022-08-28T22:41:24.354Z,57.76
2022-08-28T22:43:52.737Z,57.92
2022-08-28T22:46:20.527Z,58.16
2022-08-28T22:48:53.725Z,58.32
2022-08-28T22:51:20.425Z,58.32
2022-08-28T22:53:48.077Z,58.47
2022-08-28T22:56:16.200Z,58.44
2022-08-28T22:58:42.675Z,58.36
2022-08-28T23:01:13.779Z,58.54
2022-08-28T23:03:41.119Z,58.35
2022-08-28T23:06:07.784Z,58.15
2022-08-28T23:08:34.608Z,58.08
2022-08-28T23:11:04.077Z,58.13
2022-08-28T23:13:31.923Z,58.07
2022-08-28T23:15:58.804Z,57.99
2022-08-28T23:18:29.149Z,58.21
2022-08-28T23:20:56.306Z,58.00
2022-08-28T23:23:23.974Z,58.17
2022-08-28T23:25:50.616Z,58.38
2022-08-28T23:28:20.372Z,58.46
2022-08-28T23:30:48.494Z,58.75
2022-08-28T23:33:23.794Z,59.10
2022-08-28T23:35:50.410Z,59.38
2022-08-28T23:38:16.792Z,59.39
2022-08-28T23:40:44.148Z,59.66
2022-08-28T23:43:10.945Z,59.94
2022-08-28T23:45:40.421Z,59.81
2022-08-28T23:48:06.939Z,59.84
2022-08-28T23:50:33.663Z,60.12
2022-08-28T23:53:01.382Z,60.33
2022-08-28T23:55:27.872Z,60.39
2022-08-28T23:57:56.623Z,60.54
